Time;durP1;ratioP1;P1;durP2;ratioP2;P2;SDS_P1;SDS_P2;PMS_P1;PMS_P2;Temp;Humidity;BMP_temperature;BMP_pressure;BME280_temperature;BME280_humidity;BME280_pressure;Samples;Min_cycle;Max_cycle;Signal;HPM_P1;HPM_P2
2022/05/07 00:01:32;;;;;;;195.62;69.07;;;;;;;4.54;100.00;102179.17;1832148;78;20990;-83
2022/05/07 00:03:58;;;;;;;190.22;67.08;;;;;;;4.55;100.00;102174.97;1832240;77;20956;-82
2022/05/07 00:06:24;;;;;;;205.22;67.55;;;;;;;4.54;100.00;102177.33;1832553;77;20958;-82
2022/05/07 00:08:50;;;;;;;194.80;67.62;;;;;;;4.55;100.00;102182.16;1832034;77;21031;-83
2022/05/07 00:11:20;;;;;;;196.80;68.05;;;;;;;4.59;100.00;102182.61;1832203;77;21731;-82
2022/05/07 00:13:45;;;;;;;183.78;63.87;;;;;;;4.59;100.00;102186.14;1829173;78;21030;-82
2022/05/07 00:18:56;;;;;;;186.70;63.90;;;;;;;4.59;100.00;102185.28;1831833;78;20976;-82
2022/05/07 00:21:22;;;;;;;184.22;61.20;;;;;;;4.55;100.00;102188.83;1832210;77;20861;-82
2022/05/07 00:23:48;;;;;;;182.32;59.30;;;;;;;4.48;100.00;102188.73;1832292;78;21256;-83
2022/05/07 00:26:14;;;;;;;175.47;61.00;;;;;;;4.42;100.00;102189.45;1831947;77;21024;-81
2022/05/07 00:28:40;;;;;;;168.25;60.65;;;;;;;4.38;100.00;102189.46;1832246;77;20872;-82
2022/05/07 00:31:06;;;;;;;164.13;58.42;;;;;;;4.36;100.00;102188.01;1832095;77;21562;-83
2022/05/07 00:33:32;;;;;;;167.75;59.13;;;;;;;4.31;100.00;102185.86;1826879;77;20999;-82
2022/05/07 00:35:58;;;;;;;167.07;58.63;;;;;;;4.27;100.00;102181.39;1826057;78;21228;-82
2022/05/07 00:38:24;;;;;;;167.70;55.40;;;;;;;4.25;100.00;102184.73;1826004;78;20970;-82
2022/05/07 00:40:50;;;;;;;153.80;56.45;;;;;;;4.26;100.00;102181.55;1825511;78;21519;-82
2022/05/07 00:43:17;;;;;;;158.52;54.05;;;;;;;4.23;100.00;102190.74;1825892;78;20984;-82
2022/05/07 00:45:45;;;;;;;165.30;57.73;;;;;;;4.23;100.00;102179.25;1825689;78;21562;-82
2022/05/07 00:48:13;;;;;;;158.75;54.13;;;;;;;4.20;100.00;102181.77;1825957;77;21074;-83
2022/05/07 00:53:24;;;;;;;154.85;55.33;;;;;;;4.09;100.00;102182.20;1831327;77;20999;-82
2022/05/07 00:55:51;;;;;;;155.97;53.20;;;;;;;4.09;100.00;102175.53;1825510;78;21027;-83
2022/05/07 00:58:19;;;;;;;143.22;51.55;;;;;;;4.12;100.00;102187.66;1826187;78;21003;-82
2022/05/07 01:00:45;;;;;;;149.85;52.20;;;;;;;4.12;100.00;102184.52;1825628;78;21090;-82
2022/05/07 01:03:12;;;;;;;145.68;51.95;;;;;;;4.15;100.00;102182.83;1825626;78;20909;-82
2022/05/07 01:05:39;;;;;;;145.95;49.90;;;;;;;4.15;100.00;102189.97;1825387;78;21065;-82
2022/05/07 01:08:08;;;;;;;144.32;48.58;;;;;;;4.13;100.00;102186.67;1825833;77;21018;-83
2022/05/07 01:10:35;;;;;;;140.25;49.80;;;;;;;4.14;100.00;102189.14;1825553;78;21010;-82
2022/05/07 01:13:01;;;;;;;137.07;49.10;;;;;;;4.15;100.00;102189.49;1825703;78;21558;-83
2022/05/07 01:15:27;;;;;;;132.40;47.78;;;;;;;4.14;100.00;102186.98;1825742;78;20872;-82
2022/05/07 01:17:53;;;;;;;131.87;48.10;;;;;;;4.15;100.00;102193.97;1825841;78;21018;-82
2022/05/07 01:20:19;;;;;;;138.10;48.42;;;;;;;4.14;100.00;102194.99;1825741;78;21480;-82
2022/05/07 01:22:47;;;;;;;136.25;46.85;;;;;;;4.11;100.00;102200.17;1825903;78;21058;-82
2022/05/07 01:25:13;;;;;;;138.75;47.65;;;;;;;4.07;100.00;102199.70;1825637;78;21156;-83
2022/05/07 01:27:39;;;;;;;139.77;48.08;;;;;;;4.07;100.00;102202.88;1826282;78;20979;-82
2022/05/07 01:30:06;;;;;;;122.25;44.80;;;;;;;4.05;100.00;102200.38;1825670;78;20888;-83
2022/05/07 01:32:32;;;;;;;129.40;48.05;;;;;;;4.00;100.00;102196.58;1826538;77;21105;-82
2022/05/07 01:34:58;;;;;;;131.78;45.63;;;;;;;3.96;100.00;102193.44;1828903;78;22114;-82
2022/05/07 01:37:25;;;;;;;136.95;48.95;;;;;;;3.96;100.00;102197.95;1829203;78;21046;-83
2022/05/07 01:39:51;;;;;;;148.40;51.70;;;;;;;3.95;100.00;102198.96;1828596;78;20961;-83
2022/05/07 01:42:17;;;;;;;142.30;52.38;;;;;;;3.93;100.00;102200.97;1829073;77;20872;-83
2022/05/07 01:44:44;;;;;;;133.22;45.35;;;;;;;3.91;100.00;102199.80;1829225;78;21621;-82
2022/05/07 01:49:54;;;;;;;126.65;43.70;;;;;;;3.86;100.00;102207.52;1828919;78;21043;-82
2022/05/07 01:52:20;;;;;;;138.40;48.50;;;;;;;3.78;100.00;102213.70;1829414;78;20954;-82
2022/05/07 01:54:46;;;;;;;129.47;45.45;;;;;;;3.69;100.00;102213.93;1829147;78;20944;-82
2022/05/07 01:57:12;;;;;;;124.97;43.17;;;;;;;3.62;100.00;102219.14;1829230;78;20879;-83
2022/05/07 01:59:38;;;;;;;131.20;43.60;;;;;;;3.56;100.00;102219.33;1829078;78;20999;-82
2022/05/07 02:02:04;;;;;;;115.95;42.55;;;;;;;3.49;100.00;102217.52;1828850;78;21112;-82
2022/05/07 02:04:31;;;;;;;126.53;46.00;;;;;;;3.44;100.00;102214.02;1829388;78;20983;-82
2022/05/07 02:06:57;;;;;;;126.55;44.15;;;;;;;3.41;100.00;102221.02;1828988;78;20971;-83
2022/05/07 02:09:23;;;;;;;121.55;41.30;;;;;;;3.33;100.00;102221.08;1829524;78;20978;-82
2022/05/07 02:11:49;;;;;;;114.70;41.42;;;;;;;3.33;100.00;102225.90;1829314;78;20856;-83
2022/05/07 02:14:15;;;;;;;108.42;40.23;;;;;;;3.26;100.00;102220.91;1829519;78;21123;-82
2022/05/07 02:16:41;;;;;;;111.90;40.15;;;;;;;3.24;100.00;102227.44;1829445;78;20844;-82
2022/05/07 02:19:07;;;;;;;117.82;39.00;;;;;;;3.27;100.00;102230.58;1829290;78;20950;-83
2022/05/07 02:21:33;;;;;;;115.70;41.00;;;;;;;3.29;100.00;102227.22;1829431;78;21542;-82
2022/05/07 02:23:59;;;;;;;111.10;38.60;;;;;;;3.33;100.00;102235.73;1829328;78;20979;-82
2022/05/07 02:26:25;;;;;;;115.45;40.05;;;;;;;3.37;100.00;102237.04;1829344;78;21799;-82
2022/05/07 02:28:51;;;;;;;115.65;39.33;;;;;;;3.42;100.00;102241.36;1829697;77;20872;-83
2022/05/07 02:31:16;;;;;;;110.65;39.08;;;;;;;3.48;100.00;102242.00;1829322;78;21546;-83
2022/05/07 02:33:42;;;;;;;109.32;38.67;;;;;;;3.56;100.00;102246.45;1830763;78;20841;-83
2022/05/07 02:36:08;;;;;;;105.43;38.00;;;;;;;3.62;100.00;102247.95;1832288;77;20959;-83
2022/05/07 02:38:36;;;;;;;105.30;37.78;;;;;;;3.71;100.00;102245.26;1832224;77;21131;-81
2022/05/07 02:43:46;;;;;;;111.15;38.00;;;;;;;3.91;100.00;102251.80;1831733;78;21003;-83
2022/05/07 02:46:12;;;;;;;104.80;37.88;;;;;;;4.00;100.00;102248.11;1832275;77;21597;-83
2022/05/07 02:48:38;;;;;;;99.75;34.65;;;;;;;4.10;100.00;102251.37;1832419;77;20900;-82
2022/05/07 02:51:04;;;;;;;107.20;37.88;;;;;;;4.22;100.00;102254.47;1832376;77;21926;-84
2022/05/07 02:53:30;;;;;;;103.83;36.33;;;;;;;4.33;100.00;102250.06;1832106;77;20899;-82
2022/05/07 02:55:56;;;;;;;107.27;34.88;;;;;;;4.44;100.00;102254.16;1832283;78;20911;-82
2022/05/07 02:58:22;;;;;;;106.50;37.20;;;;;;;4.55;100.00;102256.39;1832227;77;20880;-83
2022/05/07 03:00:49;;;;;;;99.75;35.80;;;;;;;4.65;100.00;102260.69;1832418;77;21178;-82
2022/05/07 03:03:16;;;;;;;114.97;39.13;;;;;;;4.77;100.00;102261.41;1831923;77;21098;-83
2022/05/07 03:05:42;;;;;;;123.65;43.58;;;;;;;4.90;100.00;102260.78;1832140;78;20996;-83
2022/05/07 03:08:08;;;;;;;123.25;40.95;;;;;;;5.00;100.00;102261.38;1832468;77;20880;-83
2022/05/07 03:10:33;;;;;;;98.03;34.73;;;;;;;5.11;100.00;102265.42;1832179;77;21015;-83
2022/05/07 03:12:59;;;;;;;92.47;32.38;;;;;;;5.22;100.00;102267.66;1832167;77;21121;-82
2022/05/07 03:15:25;;;;;;;91.35;33.55;;;;;;;5.35;100.00;102268.34;1834500;77;21000;-83
2022/05/07 03:17:51;;;;;;;91.63;31.90;;;;;;;5.51;100.00;102273.22;1832193;77;21621;-84
2022/05/07 03:20:18;;;;;;;79.77;29.02;;;;;;;5.65;100.00;102274.55;1832269;77;20856;-83
2022/05/07 03:22:45;;;;;;;86.28;28.05;;;;;;;5.82;100.00;102280.50;1831856;78;21069;-84
2022/05/07 03:25:12;;;;;;;77.10;26.93;;;;;;;6.10;100.00;102278.00;1831897;78;20983;-84
2022/05/07 03:27:39;;;;;;;82.92;27.82;;;;;;;6.49;100.00;102275.94;1832087;77;21056;-82
2022/05/07 03:30:07;;;;;;;69.03;25.97;;;;;;;6.86;100.00;102280.73;1832212;78;21475;-83
2022/05/07 03:32:34;;;;;;;71.75;24.80;;;;;;;7.12;100.00;102276.91;1829417;78;21023;-84
2022/05/07 03:35:01;;;;;;;68.55;25.37;;;;;;;7.80;100.00;102280.30;1831823;77;20983;-83
2022/05/07 03:37:28;;;;;;;62.53;24.60;;;;;;;8.60;100.00;102285.42;1831864;78;21035;-82
2022/05/07 03:39:54;;;;;;;62.70;22.70;;;;;;;9.24;100.00;102288.02;1831967;78;21111;-84
2022/05/07 03:42:20;;;;;;;55.55;21.37;;;;;;;10.09;100.00;102287.94;1832070;78;21468;-83
2022/05/07 03:44:48;;;;;;;54.10;20.90;;;;;;;10.78;100.00;102285.79;1832078;77;20984;-83
2022/05/07 03:47:14;;;;;;;55.98;21.90;;;;;;;11.63;100.00;102287.91;1818313;78;21054;-83
2022/05/07 03:49:40;;;;;;;52.23;22.58;;;;;;;12.50;100.00;102289.00;1817986;78;21610;-83
2022/05/07 03:54:51;;;;;;;51.33;22.35;;;;;;;13.46;95.66;102295.64;1817918;78;21018;-84
2022/05/07 03:57:17;;;;;;;65.00;22.87;;;;;;;14.39;86.04;102291.83;1818319;78;21058;-84
2022/05/07 03:59:44;;;;;;;51.68;21.80;;;;;;;14.98;78.04;102294.22;1817963;78;20987;-84
2022/05/07 04:02:10;;;;;;;44.18;21.52;;;;;;;15.37;71.43;102292.34;1818385;78;21042;-84
2022/05/07 04:04:36;;;;;;;43.33;19.12;;;;;;;15.89;70.48;102297.42;1818197;78;21087;-84
2022/05/07 04:07:04;;;;;;;38.63;17.10;;;;;;;16.50;65.55;102285.02;1817881;78;21183;-84
2022/05/07 04:09:30;;;;;;;36.25;15.65;;;;;;;17.07;59.64;102287.68;1817778;78;20975;-84
2022/05/07 04:11:56;;;;;;;38.40;15.90;;;;;;;16.98;57.07;102285.16;1818068;78;21043;-84
2022/05/07 04:14:22;;;;;;;34.70;15.98;;;;;;;16.84;55.46;102284.78;1818312;78;20844;-83
2022/05/07 04:16:48;;;;;;;33.30;13.75;;;;;;;17.05;52.91;102283.57;1818108;78;21050;-84
2022/05/07 04:19:15;;;;;;;35.10;12.98;;;;;;;17.34;52.64;102282.67;1817995;78;20875;-84
2022/05/07 04:21:41;;;;;;;30.52;13.40;;;;;;;17.73;49.97;102285.03;1817640;78;21054;-84
2022/05/07 04:24:07;;;;;;;32.63;13.43;;;;;;;17.83;47.92;102290.58;1818223;78;20876;-85
2022/05/07 04:26:33;;;;;;;29.20;11.90;;;;;;;18.19;47.60;102289.32;1818204;78;20983;-84
2022/05/07 04:28:59;;;;;;;30.60;11.83;;;;;;;18.67;44.91;102284.45;1818481;78;21784;-84
2022/05/07 04:31:25;;;;;;;32.45;12.60;;;;;;;19.20;43.75;102292.62;1818116;78;20922;-84
2022/05/07 04:33:52;;;;;;;29.40;11.18;;;;;;;19.62;43.65;102285.13;1816439;78;20987;-85
2022/05/07 04:36:18;;;;;;;25.30;11.00;;;;;;;19.96;41.27;102289.40;1814803;79;21066;-84
2022/05/07 04:38:49;;;;;;;34.70;10.80;;;;;;;19.96;40.86;102288.84;1801162;78;21036;-85
2022/05/07 04:41:20;;;;;;;28.05;10.23;;;;;;;20.10;39.51;102285.50;1733564;82;21137;-84
2022/05/07 04:43:47;;;;;;;25.68;9.50;;;;;;;20.27;39.36;102287.31;1729521;82;21022;-84
2022/05/07 04:46:13;;;;;;;20.70;9.53;;;;;;;20.24;38.85;102286.52;1691763;84;21039;-85
2022/05/07 04:48:41;;;;;;;21.05;9.53;;;;;;;20.40;37.98;102296.24;1691500;84;21065;-84
2022/05/07 04:51:07;;;;;;;19.48;9.48;;;;;;;20.62;37.63;102291.75;1668661;84;21350;-84
2022/05/07 04:53:33;;;;;;;20.77;9.23;;;;;;;20.70;36.71;102301.81;1691893;84;21081;-84
2022/05/07 04:55:59;;;;;;;18.00;7.92;;;;;;;20.59;35.70;102295.06;1691937;84;21001;-85
2022/05/07 04:58:25;;;;;;;22.07;8.80;;;;;;;20.71;35.72;102287.84;1692273;84;20899;-84
2022/05/07 05:00:52;;;;;;;25.37;7.50;;;;;;;20.88;35.01;102284.66;1691871;84;21125;-85
2022/05/07 05:03:18;;;;;;;20.48;7.42;;;;;;;20.99;34.35;102290.87;1691650;84;21021;-84
2022/05/07 05:05:44;;;;;;;13.48;7.08;;;;;;;21.19;34.73;102288.48;1692007;84;21059;-84
2022/05/07 05:08:11;;;;;;;17.62;7.95;;;;;;;21.71;33.57;102294.50;1691944;84;21784;-84
2022/05/07 05:10:37;;;;;;;18.25;7.75;;;;;;;21.50;32.66;102287.61;1692060;84;21078;-83
2022/05/07 05:13:03;;;;;;;17.42;8.03;;;;;;;21.80;32.56;102287.00;1691933;84;20981;-84
2022/05/07 05:15:29;;;;;;;17.48;7.35;;;;;;;21.63;31.53;102287.48;1691976;84;21018;-83
2022/05/07 05:17:55;;;;;;;19.17;8.30;;;;;;;21.59;31.73;102285.88;1691752;84;21047;-83
2022/05/07 05:20:21;;;;;;;27.62;12.75;;;;;;;22.05;31.85;102285.82;1687876;84;20907;-85
2022/05/07 05:22:49;;;;;;;18.32;8.18;;;;;;;22.27;31.75;102286.09;1692003;84;21046;-84
2022/05/07 05:25:18;;;;;;;15.45;7.85;;;;;;;22.79;31.34;102288.25;1637956;87;21024;-85
2022/05/07 05:27:44;;;;;;;11.97;7.05;;;;;;;23.27;30.54;102285.80;1637668;87;21103;-83
2022/05/07 05:30:11;;;;;;;14.33;6.78;;;;;;;23.27;30.36;102285.23;1637966;86;21773;-86
2022/05/07 05:32:37;;;;;;;19.15;8.20;;;;;;;23.52;30.12;102298.22;1637790;87;21089;-85
2022/05/07 05:35:04;;;;;;;13.90;6.10;;;;;;;23.89;29.64;102285.38;1600494;87;20938;-87
2022/05/07 05:37:31;;;;;;;17.50;6.20;;;;;;;24.16;29.00;102281.73;1606782;86;21116;-85
2022/05/07 05:39:57;;;;;;;16.75;6.12;;;;;;;24.37;28.71;102282.88;1624705;87;20974;-86
2022/05/07 05:42:24;;;;;;;16.77;6.15;;;;;;;24.28;27.95;102277.86;1659863;83;21124;-86
2022/05/07 05:44:50;;;;;;;11.65;5.22;;;;;;;23.91;27.45;102283.92;1713065;83;21003;-86
2022/05/07 05:47:16;;;;;;;13.98;5.28;;;;;;;23.74;27.50;102287.34;1713376;83;20915;-86
2022/05/07 05:49:42;;;;;;;10.58;4.50;;;;;;;24.00;27.77;102276.59;1713480;83;20931;-85
2022/05/07 05:52:08;;;;;;;9.13;4.10;;;;;;;24.22;27.46;102274.98;1713538;83;20975;-86
2022/05/07 05:54:35;;;;;;;8.55;4.40;;;;;;;24.23;26.95;102283.48;1713279;83;22401;-86
2022/05/07 05:57:02;;;;;;;10.65;4.45;;;;;;;24.33;26.90;102276.38;1713415;83;21063;-87
2022/05/07 05:59:28;;;;;;;8.30;4.05;;;;;;;24.58;26.33;102274.95;1713348;83;21002;-85
2022/05/07 06:01:54;;;;;;;11.88;4.40;;;;;;;24.38;25.76;102277.61;1713282;83;21653;-85
2022/05/07 06:04:20;;;;;;;20.00;4.25;;;;;;;24.25;25.19;102270.22;1713431;83;21039;-86
2022/05/07 06:06:46;;;;;;;12.47;4.67;;;;;;;24.29;25.43;102278.11;1713248;83;21336;-87
2022/05/07 06:09:13;;;;;;;12.45;4.25;;;;;;;24.31;25.50;102272.30;1713443;83;21042;-85
2022/05/07 06:11:39;;;;;;;9.58;3.95;;;;;;;24.15;25.03;102286.97;1713522;83;21266;-85
2022/05/07 06:14:05;;;;;;;8.88;2.80;;;;;;;24.01;25.04;102276.02;1689601;82;20883;-85
2022/05/07 06:16:31;;;;;;;9.75;3.20;;;;;;;23.95;24.28;102278.63;1713562;83;21439;-84
2022/05/07 06:18:57;;;;;;;16.12;4.10;;;;;;;23.71;24.27;102265.12;1713556;83;21149;-85
2022/05/07 06:21:23;;;;;;;12.53;3.12;;;;;;;23.94;24.91;102275.07;1729725;79;20908;-84
2022/05/07 06:23:49;;;;;;;15.50;3.10;;;;;;;24.31;23.91;102274.48;1796684;79;20999;-86
2022/05/07 06:29:01;;;;;;;7.10;2.62;;;;;;;24.86;23.92;102267.92;1796276;79;21041;-84
2022/05/07 06:31:27;;;;;;;7.45;3.25;;;;;;;24.86;23.54;102259.64;1796606;78;21148;-85
2022/05/07 06:33:53;;;;;;;11.93;2.60;;;;;;;25.38;23.63;102262.63;1803681;77;20968;-83
2022/05/07 06:36:19;;;;;;;5.62;2.60;;;;;;;25.15;23.55;102262.73;1825998;78;20947;-86
2022/05/07 06:38:45;;;;;;;10.55;2.95;;;;;;;25.08;23.04;102256.00;1825995;78;20940;-84
2022/05/07 06:41:11;;;;;;;5.25;2.33;;;;;;;25.37;23.61;102256.87;1825867;78;21628;-86
2022/05/07 06:43:37;;;;;;;7.20;2.65;;;;;;;26.00;22.60;102256.95;1826088;78;21016;-84
2022/05/07 06:46:03;;;;;;;6.47;2.35;;;;;;;25.96;22.95;102253.20;1825920;78;21011;-85
2022/05/07 06:48:29;;;;;;;8.28;2.30;;;;;;;26.38;23.02;102258.22;1825950;78;21471;-84
2022/05/07 06:50:56;;;;;;;25.40;2.80;;;;;;;26.57;22.20;102264.25;1826200;78;20805;-85
2022/05/07 06:53:22;;;;;;;5.72;1.82;;;;;;;25.98;21.53;102251.50;1825983;78;21538;-83
2022/05/07 06:56:01;;;;;;;10.15;2.30;;;;;;;25.70;22.10;102257.27;1826051;78;21814;-84
2022/05/07 06:58:33;;;;;;;4.53;2.17;;;;;;;25.56;21.71;102257.97;1825758;78;21062;-85
2022/05/07 07:01:02;;;;;;;9.98;2.20;;;;;;;25.38;22.26;102247.45;1825931;78;21035;-85
2022/05/07 07:03:32;;;;;;;4.30;1.90;;;;;;;25.52;21.89;102254.23;1825884;78;21552;-84
2022/05/07 07:05:59;;;;;;;7.80;1.90;;;;;;;25.55;22.19;102255.78;1826233;78;20960;-85
2022/05/07 07:08:25;;;;;;;5.03;1.52;;;;;;;25.70;21.89;102243.47;1825965;78;21079;-86
2022/05/07 07:10:51;;;;;;;12.37;1.90;;;;;;;25.99;20.97;102251.73;1826131;78;20948;-88
2022/05/07 07:13:17;;;;;;;5.62;1.77;;;;;;;25.73;21.33;102239.25;1826153;78;20848;-86
2022/05/07 07:15:44;;;;;;;8.50;1.95;;;;;;;26.07;20.96;102241.27;1826159;78;20975;-86
2022/05/07 07:18:11;;;;;;;5.75;1.70;;;;;;;26.08;20.43;102236.55;1825861;78;20968;-87
2022/05/07 07:20:42;;;;;;;16.52;2.77;;;;;;;25.73;20.89;102240.63;1826198;78;21254;-87
2022/05/07 07:23:12;;;;;;;14.83;2.67;;;;;;;26.10;21.22;102243.95;1826098;78;21111;-87
2022/05/07 07:25:41;;;;;;;11.40;2.62;;;;;;;26.25;20.59;102242.06;1825846;78;21023;-87
2022/05/07 07:28:10;;;;;;;10.00;2.83;;;;;;;26.48;20.99;102235.20;1762210;80;21067;-87
2022/05/07 07:30:37;;;;;;;25.95;4.87;;;;;;;26.59;21.12;102252.84;1762562;80;21053;-88
2022/05/07 07:33:05;;;;;;;18.95;2.27;;;;;;;26.46;20.50;102236.66;1762479;80;21407;-87
2022/05/07 07:35:31;;;;;;;11.38;3.02;;;;;;;26.28;20.27;102243.59;1761897;80;21037;-87
2022/05/07 07:37:57;;;;;;;9.23;2.55;;;;;;;25.97;20.40;102233.28;1762659;80;21120;-86
2022/05/07 07:40:23;;;;;;;3.25;1.92;;;;;;;26.02;20.25;102235.89;1762626;81;21559;-85
2022/05/07 07:42:50;;;;;;;6.05;1.95;;;;;;;25.70;20.34;102220.56;1762416;81;20883;-86
2022/05/07 07:48:02;;;;;;;4.37;1.47;;;;;;;25.98;20.60;102218.35;1762162;80;21034;-86
2022/05/07 07:50:31;;;;;;;1.82;1.40;;;;;;;26.26;20.42;102205.79;1762115;80;20962;-87
2022/05/07 07:53:00;;;;;;;10.18;1.87;;;;;;;26.55;19.88;102214.56;1762526;80;21054;-85
2022/05/07 07:55:27;;;;;;;4.90;1.82;;;;;;;26.38;19.52;102209.84;1762386;80;21505;-88
2022/05/07 07:57:59;;;;;;;8.45;1.30;;;;;;;26.22;19.96;102213.70;1762577;80;21082;-86
2022/05/07 08:00:27;;;;;;;13.70;2.00;;;;;;;26.45;19.91;102207.41;1762130;80;21074;-87
2022/05/07 08:03:00;;;;;;;5.60;1.57;;;;;;;27.16;19.89;102199.95;1762253;80;21034;-85
2022/05/07 08:05:31;;;;;;;12.53;2.00;;;;;;;26.98;19.09;102204.73;1762308;81;21534;-84
2022/05/07 08:13:33;;;;;;;4.10;1.60;;;;;;;26.07;19.56;102201.77;1762109;80;21496;-87
2022/05/07 08:16:00;;;;;;;6.25;1.57;;;;;;;26.02;20.26;102202.73;1759711;80;21026;-85
2022/05/07 08:18:27;;;;;;;4.80;1.52;;;;;;;25.83;20.03;102189.27;1762389;80;20974;-85
2022/05/07 08:20:54;;;;;;;3.08;1.67;;;;;;;26.00;20.25;102178.20;1762335;81;21010;-85
2022/05/07 08:23:20;;;;;;;6.97;1.85;;;;;;;26.36;20.46;102187.27;1762197;80;21384;-86
2022/05/07 08:25:46;;;;;;;10.98;2.27;;;;;;;26.44;19.35;102196.08;1816054;78;20976;-86
2022/05/07 08:28:12;;;;;;;9.33;1.80;;;;;;;25.60;19.55;102187.19;1829207;78;20836;-85
2022/05/07 08:30:38;;;;;;;4.17;1.80;;;;;;;25.14;20.02;102192.67;1829263;78;20895;-84
2022/05/07 08:33:05;;;;;;;13.15;2.35;;;;;;;25.22;20.07;102189.14;1829011;78;20995;-87
2022/05/07 08:35:31;;;;;;;5.22;1.75;;;;;;;25.62;19.39;102171.11;1828875;77;21075;-85
2022/05/07 08:37:57;;;;;;;16.37;2.05;;;;;;;25.57;19.45;102177.59;1829184;78;20948;-84
2022/05/07 08:40:24;;;;;;;7.12;1.70;;;;;;;25.58;19.16;102171.50;1829194;78;21046;-84
2022/05/07 08:42:50;;;;;;;5.78;2.17;;;;;;;25.42;19.64;102175.87;1828928;78;21444;-84
2022/05/07 08:45:17;;;;;;;3.45;1.75;;;;;;;25.35;19.82;102177.71;1829160;77;20915;-84
2022/05/07 08:47:44;;;;;;;8.18;1.95;;;;;;;25.21;20.45;102170.13;1829388;78;21348;-84
2022/05/07 08:50:14;;;;;;;6.65;2.40;;;;;;;25.47;20.00;102186.74;1829093;78;20987;-84
2022/05/07 08:52:43;;;;;;;7.05;2.10;;;;;;;25.51;20.58;102168.41;1828784;78;21476;-85
2022/05/07 08:55:12;;;;;;;15.93;2.08;;;;;;;25.82;19.79;102164.98;1829236;78;21478;-85
2022/05/07 08:57:39;;;;;;;14.03;2.10;;;;;;;26.16;19.37;102167.45;1817280;79;21420;-82
2022/05/07 09:00:08;;;;;;;5.35;2.05;;;;;;;25.73;19.27;102160.54;1817531;79;21140;-85
2022/05/07 09:02:42;;;;;;;9.43;2.05;;;;;;;25.85;19.60;102156.58;1817360;79;20991;-85
2022/05/07 09:05:10;;;;;;;8.48;1.95;;;;;;;26.09;19.65;102155.26;1727616;82;21081;-85
2022/05/07 09:07:41;;;;;;;4.62;1.75;;;;;;;26.19;19.99;102145.26;1727904;83;21053;-85
2022/05/07 09:10:13;;;;;;;9.28;2.10;;;;;;;26.13;20.18;102147.38;1727633;83;21022;-85
2022/05/07 09:12:40;;;;;;;5.43;2.13;;;;;;;25.90;19.43;102153.66;1703196;84;21058;-85
2022/05/07 09:15:08;;;;;;;6.30;2.22;;;;;;;25.65;19.56;102151.67;1679718;84;21034;-86
2022/05/07 09:17:37;;;;;;;6.17;2.40;;;;;;;25.95;19.88;102147.17;1703523;84;21572;-83
2022/05/07 09:20:21;;;;;;;7.17;2.47;;;;;;;26.10;19.82;102145.27;1703318;84;21696;-84
2022/05/07 09:22:54;;;;;;;6.45;2.40;;;;;;;26.31;19.47;102137.67;1673439;85;21073;-83
2022/05/07 09:25:26;;;;;;;25.72;3.22;;;;;;;26.09;19.35;102138.68;1673598;85;21538;-85
2022/05/07 09:27:56;;;;;;;6.93;3.20;;;;;;;26.09;19.80;102129.01;1616381;88;21026;-84
2022/05/07 09:30:28;;;;;;;7.47;2.90;;;;;;;26.10;19.20;102120.41;1616432;88;21075;-85
2022/05/07 09:32:56;;;;;;;7.35;2.70;;;;;;;26.27;19.85;102124.51;1613210;88;21590;-85
2022/05/07 09:38:15;;;;;;;7.15;3.00;;;;;;;25.44;19.89;102113.66;1531847;93;21131;-84
2022/05/07 09:40:44;;;;;;;10.53;3.30;;;;;;;25.11;19.56;102109.14;1532118;93;21085;-85
2022/05/07 09:43:12;;;;;;;10.98;3.75;;;;;;;24.64;20.04;102117.11;1532334;93;21200;-83
2022/05/07 09:45:40;;;;;;;13.28;3.62;;;;;;;24.17;20.60;102107.04;1532268;93;21118;-85
2022/05/07 09:48:08;;;;;;;8.70;3.40;;;;;;;24.09;20.77;102100.37;1532397;93;21546;-84
2022/05/07 09:58:45;;;;;;;12.70;4.22;;;;;;;22.57;22.14;102103.98;1538025;93;21174;-85
2022/05/07 10:01:36;;;;;;;12.43;5.17;;;;;;;22.94;21.94;102107.63;1547614;91;21187;-84
2022/05/07 10:04:49;;;;;;;;;;;;;;;;;;;;;
2022/05/07 10:08:00;;;;;;;15.53;4.05;;;;;;;22.65;21.80;102096.41;1563644;91;21597;-85
2022/05/07 10:10:31;;;;;;;13.40;4.83;;;;;;;22.40;22.17;102091.64;1522538;93;21096;-85
2022/05/07 10:13:05;;;;;;;13.30;4.92;;;;;;;21.65;22.02;102102.77;1523469;93;21117;-86
2022/05/07 10:15:31;;;;;;;11.05;4.03;;;;;;;21.32;22.67;102098.02;1523193;93;21153;-83
2022/05/07 10:18:07;;;;;;;10.88;3.37;;;;;;;21.46;23.13;102098.67;1531800;91;21189;-85
2022/05/07 10:20:40;;;;;;;11.25;3.33;;;;;;;21.67;22.65;102084.08;1617623;88;21097;-84
2022/05/07 10:23:09;;;;;;;10.75;3.45;;;;;;;21.72;22.46;102088.13;1595534;89;21040;-84
2022/05/07 10:25:36;;;;;;;10.70;3.92;;;;;;;21.38;22.71;102096.02;1615338;88;21137;-84
2022/05/07 10:28:12;;;;;;;8.00;2.75;;;;;;;21.20;22.89;102085.27;1615635;88;21006;-86
2022/05/07 10:30:52;;;;;;;11.85;3.80;;;;;;;21.06;22.71;102078.35;1540582;92;21896;-84
2022/05/07 10:33:19;;;;;;;9.85;2.90;;;;;;;21.09;22.77;102080.50;1500581;95;21246;-84
2022/05/07 10:35:53;;;;;;;13.85;3.65;;;;;;;21.32;22.89;102076.08;1533880;92;21135;-83
2022/05/07 10:38:36;;;;;;;15.45;3.40;;;;;;;21.40;22.61;102086.14;1515147;94;21105;-86
2022/05/07 10:41:14;;;;;;;;;;;;;;;21.16;22.26;102073.84;1505420;95;21670;-83
2022/05/07 10:43:58;;;;;;;8.65;3.20;;;;;;;20.92;22.61;102071.95;1503500;95;20740;-82
2022/05/07 10:46:24;;;;;;;10.43;3.10;;;;;;;21.15;23.85;102062.06;1521374;92;21687;-84
2022/05/07 10:49:00;;;;;;;11.45;2.67;;;;;;;21.63;23.20;102061.92;1545241;92;21083;-83
2022/05/07 10:51:33;;;;;;;8.88;3.17;;;;;;;21.71;22.73;102050.83;1545301;92;21095;-84
2022/05/07 10:54:06;;;;;;;10.85;2.42;;;;;;;22.05;22.57;102038.16;1545412;92;24162;-84
2022/05/07 10:56:34;;;;;;;6.72;2.95;;;;;;;21.95;21.96;102047.39;1545182;92;21225;-84
2022/05/07 10:59:01;;;;;;;6.40;2.35;;;;;;;21.47;22.45;102041.31;1576255;90;21108;-82
2022/05/07 11:01:31;;;;;;;8.60;2.98;;;;;;;21.52;22.86;102028.90;1580951;90;21068;-83
2022/05/07 11:04:08;;;;;;;6.92;2.72;;;;;;;21.58;23.06;102033.19;1580950;90;21300;-84
2022/05/07 11:06:51;;;;;;;8.78;2.22;;;;;;;21.54;23.13;102035.72;1581044;90;21029;-83
2022/05/07 11:09:24;;;;;;;4.67;2.45;;;;;;;21.57;23.32;102030.20;1581100;90;21837;-85
2022/05/07 11:11:57;;;;;;;13.83;2.70;;;;;;;21.52;22.69;102037.13;1580882;90;21045;-82
2022/05/07 11:14:26;;;;;;;9.43;2.50;;;;;;;21.46;23.18;102031.47;1581066;90;21103;-83
2022/05/07 11:16:55;;;;;;;11.48;2.40;;;;;;;21.44;23.19;102029.03;1581079;90;21049;-84
2022/05/07 11:19:33;;;;;;;9.08;2.05;;;;;;;21.54;22.63;102017.08;1581010;90;21108;-83
2022/05/07 11:22:01;;;;;;;5.30;1.72;;;;;;;21.42;22.97;102017.54;1530357;93;21417;-83
2022/05/07 11:24:30;;;;;;;6.05;1.60;;;;;;;21.26;23.02;102014.17;1530143;93;21180;-84
2022/05/07 11:27:05;;;;;;;7.15;1.80;;;;;;;21.42;23.47;102006.56;1549877;89;21066;-82
2022/05/07 11:29:33;;;;;;;6.45;1.55;;;;;;;21.63;22.78;101990.58;1585430;90;21115;-84
2022/05/07 11:32:07;;;;;;;4.17;1.72;;;;;;;21.91;22.79;101984.61;1623513;87;21020;-83
2022/05/07 11:34:41;;;;;;;4.83;1.40;;;;;;;22.05;22.79;101995.59;1623189;88;21997;-82
2022/05/07 11:37:20;;;;;;;5.05;1.80;;;;;;;21.76;22.45;101991.72;1610582;89;21561;-84
2022/05/07 11:40:00;;;;;;;6.08;1.40;;;;;;;21.81;22.83;101989.46;1619861;88;21095;-83
2022/05/07 11:42:34;;;;;;;10.00;1.70;;;;;;;21.64;22.52;101985.34;1622049;88;21043;-83
2022/05/07 11:48:13;;;;;;;2.90;1.32;;;;;;;21.81;23.63;101988.09;1491626;95;21096;-84
2022/05/07 11:51:01;;;;;;;6.58;1.00;;;;;;;21.90;22.46;101989.02;1489817;96;21062;-83
2022/05/07 11:53:31;;;;;;;3.08;1.35;;;;;;;21.48;22.32;101982.62;1477827;96;21162;-83
2022/05/07 11:56:11;;;;;;;5.03;1.42;;;;;;;21.63;22.58;101976.06;1495382;96;21388;-84
2022/05/07 11:58:46;;;;;;;4.00;1.10;;;;;;;21.92;22.41;101965.64;1495667;96;21575;-81
2022/05/07 12:01:22;;;;;;;3.35;1.20;;;;;;;21.74;22.66;101976.14;1495573;96;21169;-85